Delta Billie — WDE8059 — position and weather

sailwx.info

Track history (hours):
 
Tides and Currents Weather Stations Pressure Air Temp Water Temp Dewpoint Dewpoint Depression Visibility Wind Speed Wind Dir Waves Ship Positions

Delta Billie

Owner: Baydelta Maritime, San Francicso, CA. More information available from US FCC via Universal Licensing System and Coast Guard Vessel Documentation Center.

Last reported at 2017-Jul-26 19:34 UTC. Time now 2017-Jul-27 06:44 UTC.
Position N 38°03' W 122°18'.

Length 30 m; draft 5.5 m.

Type: Towing. MMSI: 367401030.

Date/timePositionNaut miles runAvg speedWind from/ knotsBaromVisibWave heightAir tempDewpointWater temp
2017-Jul-26 19:34N 38°03' W 122°18'1 8.9
2017-Jul-26 19:29N 38°03' W 122°19'5 9.3
2017-Jul-26 18:57N 38°01' W 122°24'4 9.7
2017-Jul-26 18:29N 37°56' W 122°26'1 1.9
2017-Jul-26 18:01N 37°56' W 122°25'0 0.3
2017-Jul-26 17:30N 37°56' W 122°25'3 6.2
2017-Jul-26 17:00N 37°59' W 122°25'610.6
2017-Jul-26 16:28N 38°03' W 122°20'3 0.4
2017-Jul-26 08:38N 38°04' W 122°17'0 1.6
2017-Jul-26 08:29N 38°04' W 122°17'1 0.0
2017-Jul-24 17:31N 38°03' W 122°18'6 9.3
2017-Jul-24 16:50N 37°60' W 122°25'3 9.5
2017-Jul-24 16:30N 37°57' W 122°26'5 9.0
2017-Jul-24 16:00N 37°52' W 122°27'8 2.6
2017-Jul-24 13:00N 37°45' W 122°23'0 0.0
2017-Jul-24 12:30N 37°45' W 122°23'0 0.0
2017-Jul-24 12:00N 37°45' W 122°23'0 0.0
2017-Jul-24 11:30N 37°45' W 122°23'0 0.0
2017-Jul-24 11:00N 37°45' W 122°23'3 7.0
2017-Jul-24 10:30N 37°48' W 122°20'2 4.6
2017-Jul-24 10:00N 37°48' W 122°17'1 1.6
2017-Jul-24 09:31N 37°48' W 122°18'1 2.0
2017-Jul-24 09:00N 37°48' W 122°20'2 3.7
2017-Jul-24 08:30N 37°48' W 122°22'2 3.3
2017-Jul-24 08:00N 37°48' W 122°24'0 0.0
2017-Jul-24 07:30N 37°48' W 122°24'0 0.0
2017-Jul-24 07:00N 37°48' W 122°24'0 0.0
2017-Jul-24 06:30N 37°48' W 122°24'0 0.0
2017-Jul-24 06:00N 37°48' W 122°24'0 0.0
2017-Jul-24 05:29N 37°48' W 122°24'0 0.0
2017-Jul-24 05:00N 37°48' W 122°24'0 0.0
2017-Jul-24 04:29N 37°48' W 122°24'0 0.0
2017-Jul-24 04:00N 37°48' W 122°24'0 0.0
2017-Jul-24 03:31N 37°48' W 122°24'0 0.0
2017-Jul-24 03:00N 37°48' W 122°24'0 0.0
2017-Jul-24 02:30N 37°48' W 122°24'0 0.0
2017-Jul-24 02:00N 37°48' W 122°24'0 0.0
2017-Jul-24 01:31N 37°48' W 122°24'0 0.0
2017-Jul-24 01:00N 37°48' W 122°24'3 6.8
2017-Jul-24 00:31N 37°46' W 122°21'1 2.6
2017-Jul-24 00:00N 37°47' W 122°21'4 8.7
2017-Jul-23 23:30N 37°51' W 122°24'510.6
2017-Jul-23 23:00N 37°56' W 122°27'5 9.7
2017-Jul-23 22:30N 38°00' W 122°25'5 9.5
2017-Jul-23 22:00N 38°03' W 122°20'3 6.0
2017-Jul-23 21:27N 38°04' W 122°16'0 0.6
2017-Jul-23 21:00N 38°03' W 122°16'0 0.0
2017-Jul-23 07:00N 38°04' W 122°16'4 7.6
2017-Jul-23 06:30N 38°03' W 122°21'4 9.0
2017-Jul-23 06:00N 37°60' W 122°25'510.8
2017-Jul-23 05:30N 37°54' W 122°27'510.9
2017-Jul-23 05:00N 37°49' W 122°24'4 9.0
2017-Jul-23 04:31N 37°45' W 122°21'2 4.0
2017-Jul-23 04:00N 37°44' W 122°21'2 3.8
2017-Jul-23 03:30N 37°45' W 122°22'3 6.8
2017-Jul-23 03:01N 37°48' W 122°24'0 0.0
2017-Jul-23 02:30N 37°48' W 122°24'0 0.0
2017-Jul-23 02:00N 37°48' W 122°24'0 0.0
2017-Jul-23 01:30N 37°48' W 122°24'3 6.0
2017-Jul-23 01:00N 37°51' W 122°24'4 7.0
2017-Jul-23 00:30N 37°54' W 122°23'1 1.8
2017-Jul-23 00:01N 37°55' W 122°22'0 0.0
2017-Jul-22 23:30N 37°55' W 122°22'0 0.0
2017-Jul-22 23:00N 37°55' W 122°22'0 0.0
2017-Jul-22 22:30N 37°55' W 122°22'0 0.0
2017-Jul-22 22:01N 37°55' W 122°22'0 0.5
2017-Jul-22 21:30N 37°55' W 122°22'0 0.3
2017-Jul-22 21:01N 37°55' W 122°22'2 3.9
2017-Jul-22 20:30N 37°55' W 122°24'2 3.2
2017-Jul-22 20:00N 37°53' W 122°25'4 7.5
2017-Jul-22 19:30N 37°50' W 122°28'2 4.5
2017-Jul-22 18:57N 37°48' W 122°30'1 2.5
2017-Jul-22 18:30N 37°49' W 122°29'3 6.5
2017-Jul-22 17:59N 37°49' W 122°25'1 1.8
2017-Jul-22 17:30N 37°48' W 122°24'0 0.0
2017-Jul-22 17:00N 37°48' W 122°24'0 0.0
2017-Jul-22 16:30N 37°48' W 122°24'0 0.0
2017-Jul-22 16:00N 37°48' W 122°24'0 0.0
2017-Jul-22 15:31N 37°48' W 122°24'0 0.0
2017-Jul-22 15:00N 37°48' W 122°24'0 0.0
2017-Jul-22 14:00N 37°48' W 122°24'3 5.6
2017-Jul-22 13:31N 37°48' W 122°20'1 1.2
2017-Jul-22 13:00N 37°49' W 122°20'0 0.7
2017-Jul-22 12:31N 37°49' W 122°20'2 4.6
2017-Jul-22 12:00N 37°48' W 122°23'1 1.4
2017-Jul-22 11:30N 37°48' W 122°24'0 0.0
2017-Jul-22 11:00N 37°48' W 122°24'0 0.0
2017-Jul-22 10:30N 37°48' W 122°24'0 0.0
2017-Jul-22 10:00N 37°48' W 122°24'0 0.0
2017-Jul-22 09:30N 37°48' W 122°24'0 0.0
2017-Jul-22 09:00N 37°48' W 122°24'0 0.0
2017-Jul-22 08:30N 37°48' W 122°24'0 0.0
2017-Jul-22 08:01N 37°48' W 122°24'0 0.0
2017-Jul-22 07:29N 37°48' W 122°24'0 0.0
2017-Jul-22 07:00N 37°48' W 122°24'0 0.0
2017-Jul-22 06:30N 37°48' W 122°24'0 0.0
2017-Jul-22 06:00N 37°48' W 122°24'0 0.0
2017-Jul-22 05:30N 37°48' W 122°24'0 0.0
2017-Jul-22 05:00N 37°48' W 122°24'0 0.0
2017-Jul-22 04:30N 37°48' W 122°24'0 0.0
2017-Jul-22 04:00N 37°48' W 122°24'0 0.0
2017-Jul-22 03:31N 37°48' W 122°24'0 0.0
2017-Jul-22 03:01N 37°48' W 122°24'4 8.9
2017-Jul-22 02:31N 37°53' W 122°25'3 6.0
2017-Jul-22 02:00N 37°56' W 122°25'0 0.1
2017-Jul-22 01:30N 37°56' W 122°25'0 0.4
2017-Jul-22 01:00N 37°55' W 122°25'0 0.0
2017-Jul-22 00:30N 37°55' W 122°25'0 0.0
2017-Jul-22 00:00N 37°55' W 122°25'0 0.0
2017-Jul-21 23:30N 37°55' W 122°25'2 3.8
2017-Jul-21 23:00N 37°57' W 122°26'610.9
2017-Jul-21 22:28N 38°02' W 122°22'3 1.0
2017-Jul-21 19:25N 38°03' W 122°18'611.8
2017-Jul-21 18:55N 38°00' W 122°25'512.0
2017-Jul-21 18:30N 37°56' W 122°27'510.5
2017-Jul-21 18:01N 37°51' W 122°25'5 9.8
2017-Jul-21 17:30N 37°48' W 122°30'1 2.1
2017-Jul-21 17:00N 37°49' W 122°30'3 5.9
2017-Jul-21 16:30N 37°49' W 122°26'2 3.7
2017-Jul-21 16:00N 37°48' W 122°24'0 0.0
2017-Jul-21 15:30N 37°48' W 122°24'0 0.0
2017-Jul-21 15:00N 37°48' W 122°24'0 0.0
2017-Jul-21 14:30N 37°48' W 122°24'0 0.0
2017-Jul-21 14:01N 37°48' W 122°24'0 0.0
2017-Jul-21 13:30N 37°48' W 122°24'0 0.0
2017-Jul-21 13:00N 37°48' W 122°24'0 0.0
2017-Jul-21 12:30N 37°48' W 122°24'0 0.0
2017-Jul-21 12:00N 37°48' W 122°24'0 0.0
2017-Jul-21 11:30N 37°48' W 122°24'0 0.0
2017-Jul-21 11:00N 37°48' W 122°24'0 0.0
2017-Jul-21 10:30N 37°48' W 122°24'0 0.0
2017-Jul-21 10:00N 37°48' W 122°24'0 0.0
2017-Jul-21 09:30N 37°48' W 122°24'0 0.0
2017-Jul-21 09:00N 37°48' W 122°24'0 0.0
2017-Jul-21 08:30N 37°48' W 122°24'0 0.0
2017-Jul-21 08:00N 37°48' W 122°24'0 0.0
2017-Jul-21 07:28N 37°48' W 122°24'0 0.0
2017-Jul-21 07:01N 37°48' W 122°24'0 0.0
2017-Jul-21 06:30N 37°48' W 122°24'0 0.0
2017-Jul-21 06:00N 37°48' W 122°24'0 0.0
2017-Jul-21 05:30N 37°48' W 122°24'0 0.0
2017-Jul-21 05:00N 37°48' W 122°24'0 0.0
2017-Jul-21 04:30N 37°48' W 122°24'0 0.0
2017-Jul-21 04:00N 37°48' W 122°24'0 0.0
2017-Jul-21 03:31N 37°48' W 122°24'0 0.0
2017-Jul-21 03:00N 37°48' W 122°24'0 0.0
2017-Jul-21 02:31N 37°48' W 122°24'0 0.0
2017-Jul-21 02:00N 37°48' W 122°24'0 0.0
2017-Jul-21 01:29N 37°48' W 122°24'0 0.0
2017-Jul-21 01:01N 37°48' W 122°24'0 0.0
2017-Jul-21 00:30N 37°48' W 122°24'0 0.0
2017-Jul-21 00:00N 37°48' W 122°24'0 0.0
2017-Jul-20 23:30N 37°48' W 122°24'0 0.0
2017-Jul-20 23:00N 37°48' W 122°24'0 0.0
2017-Jul-20 22:30N 37°48' W 122°24'0 0.0
2017-Jul-20 22:00N 37°48' W 122°24'0 0.0
2017-Jul-20 21:30N 37°48' W 122°24'0 0.0
2017-Jul-20 21:00N 37°48' W 122°24'0 0.0
2017-Jul-20 20:30N 37°48' W 122°24'2 3.6
2017-Jul-20 20:00N 37°49' W 122°26'4 8.2
2017-Jul-20 19:30N 37°49' W 122°31'1 2.8
2017-Jul-20 19:00N 37°49' W 122°29'5 9.2
2017-Jul-20 18:30N 37°52' W 122°25'5 9.7
2017-Jul-20 18:00N 37°56' W 122°27'5 9.1
2017-Jul-20 17:27N 38°01' W 122°24'4 9.7
2017-Jul-20 17:00N 38°03' W 122°19'5 9.1
2017-Jul-20 16:30N 38°04' W 122°14'3 0.3
2017-Jul-20 07:20N 38°03' W 122°10'310.5
2017-Jul-20 07:00N 38°04' W 122°14'1 0.5
2017-Jul-20 05:16N 38°05' W 122°15'1 4.4
2017-Jul-20 04:59N 38°03' W 122°15'0 0.0
2017-Jul-20 04:30N 38°03' W 122°15'0 0.0
2017-Jul-20 04:00N 38°03' W 122°15'0 0.0
2017-Jul-20 03:30N 38°03' W 122°15'0 0.0
2017-Jul-20 03:00N 38°03' W 122°15'0 0.0
2017-Jul-20 02:30N 38°03' W 122°15'1 0.9
2017-Jul-20 01:27N 38°03' W 122°16'1 2.3
2017-Jul-20 00:59N 38°03' W 122°17'5 9.8
2017-Jul-20 00:30N 38°03' W 122°11'1 0.0
2017-Jul-19 03:35N 38°03' W 122°11'110.3
2017-Jul-19 03:30N 38°03' W 122°12'5 9.8
2017-Jul-19 03:00N 38°03' W 122°18'4 8.0
2017-Jul-19 02:30N 38°02' W 122°22'5 9.2
2017-Jul-19 02:00N 37°58' W 122°26'5 9.5
2017-Jul-19 01:30N 37°54' W 122°26'5 9.9
2017-Jul-19 01:00N 37°49' W 122°24'5 9.1
2017-Jul-19 00:30N 37°45' W 122°21'1 2.1
2017-Jul-19 00:00N 37°44' W 122°20'4 7.6
2017-Jul-18 23:30N 37°48' W 122°20'1 2.5
2017-Jul-18 23:00N 37°48' W 122°19'1 2.4
2017-Jul-18 22:30N 37°48' W 122°20'4 7.6
2017-Jul-18 22:00N 37°51' W 122°23'4 7.5
2017-Jul-18 21:30N 37°54' W 122°25'5 8.0
2017-Jul-18 20:52N 37°60' W 122°25'3 8.8
2017-Jul-18 20:30N 38°02' W 122°22'7 8.6
2017-Jul-18 19:41N 38°04' W 122°14'0 1.4
2017-Jul-18 19:29N 38°04' W 122°13'1 0.3
2017-Jul-18 16:13N 38°04' W 122°15'5 5.9
2017-Jul-18 15:23N 38°02' W 122°09'1 0.1
2017-Jul-18 07:01N 38°03' W 122°08'0 0.0
2017-Jul-18 06:56N 38°03' W 122°08'0 0.0
2017-Jul-18 06:29N 38°03' W 122°08'0 0.0
2017-Jul-18 05:58N 38°03' W 122°08'0 0.0
2017-Jul-18 04:18N 38°03' W 122°08'0 0.0
2017-Jul-18 03:53N 38°03' W 122°08'0 0.0
2017-Jul-18 03:30N 38°03' W 122°08'0 0.1
2017-Jul-18 01:48N 38°02' W 122°08'2 5.0
2017-Jul-18 01:19N 38°03' W 122°11'311.2
2017-Jul-18 01:00N 38°04' W 122°15'8 9.4
2017-Jul-18 00:11N 38°00' W 122°24'310.7
2017-Jul-17 23:54N 37°58' W 122°26'512.0
2017-Jul-17 23:30N 37°53' W 122°25'510.0
2017-Jul-17 23:00N 37°48' W 122°24'0 0.0
2017-Jul-17 22:30N 37°48' W 122°24'0 0.0
2017-Jul-17 22:00N 37°48' W 122°24'0 0.0
2017-Jul-17 21:30N 37°48' W 122°24'0 0.0
2017-Jul-17 21:00N 37°48' W 122°24'0 0.0
2017-Jul-17 20:30N 37°48' W 122°24'0 0.0
2017-Jul-17 20:00N 37°48' W 122°24'0 0.1
2017-Jul-17 19:30N 37°48' W 122°24'0 0.0
2017-Jul-17 19:00N 37°48' W 122°24'0 0.1
2017-Jul-17 18:30N 37°48' W 122°24'0 0.0
2017-Jul-17 18:00N 37°48' W 122°24'0 0.0
2017-Jul-17 17:30N 37°48' W 122°24'0 0.0
2017-Jul-17 17:00N 37°48' W 122°24'0 0.0
2017-Jul-17 16:30N 37°48' W 122°24'0 0.0
2017-Jul-17 16:00N 37°48' W 122°24'0 0.0
2017-Jul-17 15:30N 37°48' W 122°24'0 0.1
2017-Jul-17 15:00N 37°48' W 122°24'2 5.0
2017-Jul-17 14:30N 37°46' W 122°23'0 0.0
2017-Jul-17 14:00N 37°46' W 122°23'0 0.0
2017-Jul-17 13:30N 37°46' W 122°23'0 0.1
2017-Jul-17 13:00N 37°46' W 122°23'0 0.3
2017-Jul-17 12:30N 37°46' W 122°23'0 1.0
2017-Jul-17 12:00N 37°46' W 122°22'1 2.3
2017-Jul-17 11:30N 37°46' W 122°21'0 0.2
2017-Jul-17 11:00N 37°46' W 122°21'3 6.1
2017-Jul-17 10:30N 37°48' W 122°24'0 0.0
2017-Jul-17 10:00N 37°48' W 122°24'1 3.0
2017-Jul-17 09:30N 37°50' W 122°24'611.8
2017-Jul-17 09:00N 37°55' W 122°25'611.3
2017-Jul-17 08:30N 38°01' W 122°24'612.2
2017-Jul-17 08:00N 38°03' W 122°17'611.9
2017-Jul-17 07:29N 38°02' W 122°09'1 1.5
2017-Jul-17 07:00N 38°02' W 122°08'0 0.0
2017-Jul-17 06:29N 38°02' W 122°08'1 0.9
2017-Jul-17 05:54N 38°02' W 122°09'1 2.4
2017-Jul-17 05:30N 38°02' W 122°07'1 1.2
2017-Jul-17 05:00N 38°03' W 122°08'0 0.0
2017-Jul-17 04:29N 38°03' W 122°08'1 2.3
2017-Jul-17 03:59N 38°02' W 122°09'510.0
2017-Jul-17 03:30N 38°04' W 122°15'610.4
2017-Jul-17 02:58N 38°02' W 122°22'510.0
2017-Jul-17 02:30N 37°59' W 122°26'510.3
2017-Jul-17 02:00N 37°53' W 122°25'5 9.9
2017-Jul-17 01:30N 37°49' W 122°21'1 2.4
2017-Jul-17 01:00N 37°48' W 122°20'1 1.8
2017-Jul-17 00:30N 37°49' W 122°19'1 1.9
2017-Jul-17 00:01N 37°48' W 122°21'2 3.4
2017-Jul-16 23:30N 37°48' W 122°23'2 3.4
2017-Jul-16 23:00N 37°50' W 122°23'4 8.8
2017-Jul-16 22:30N 37°54' W 122°25'5 9.0
2017-Jul-16 21:59N 37°59' W 122°26'5 9.9
2017-Jul-16 21:30N 38°02' W 122°22'611.7
2017-Jul-16 21:00N 38°04' W 122°14'  
Track history (hours):
 
Tides and Currents Weather Stations Pressure Air Temp Water Temp Dewpoint Dewpoint Depression Visibility Wind Speed Wind Dir Waves Ship Positions

Delta Billie

Owner: Baydelta Maritime, San Francicso, CA. More information available from US FCC via Universal Licensing System and Coast Guard Vessel Documentation Center.

Last reported at 2017-Jul-26 19:34 UTC. Time now 2017-Jul-27 06:44 UTC.
Position N 38°03' W 122°18'.

Length 30 m; draft 5.5 m.

Type: Towing. MMSI: 367401030.

Date/timePositionNaut miles runAvg speedWind from/ knotsBaromVisibWave heightAir tempDewpointWater temp
2017-Jul-26 19:34N 38°03' W 122°18'1 8.9
2017-Jul-26 19:29N 38°03' W 122°19'5 9.3
2017-Jul-26 18:57N 38°01' W 122°24'4 9.7
2017-Jul-26 18:29N 37°56' W 122°26'1 1.9
2017-Jul-26 18:01N 37°56' W 122°25'0 0.3
2017-Jul-26 17:30N 37°56' W 122°25'3 6.2
2017-Jul-26 17:00N 37°59' W 122°25'610.6
2017-Jul-26 16:28N 38°03' W 122°20'3 0.4
2017-Jul-26 08:38N 38°04' W 122°17'0 1.6
2017-Jul-26 08:29N 38°04' W 122°17'1 0.0
2017-Jul-24 17:31N 38°03' W 122°18'6 9.3
2017-Jul-24 16:50N 37°60' W 122°25'3 9.5
2017-Jul-24 16:30N 37°57' W 122°26'5 9.0
2017-Jul-24 16:00N 37°52' W 122°27'8 2.6
2017-Jul-24 13:00N 37°45' W 122°23'0 0.0
2017-Jul-24 12:30N 37°45' W 122°23'0 0.0
2017-Jul-24 12:00N 37°45' W 122°23'0 0.0
2017-Jul-24 11:30N 37°45' W 122°23'0 0.0
2017-Jul-24 11:00N 37°45' W 122°23'3 7.0
2017-Jul-24 10:30N 37°48' W 122°20'2 4.6
2017-Jul-24 10:00N 37°48' W 122°17'1 1.6
2017-Jul-24 09:31N 37°48' W 122°18'1 2.0
2017-Jul-24 09:00N 37°48' W 122°20'2 3.7
2017-Jul-24 08:30N 37°48' W 122°22'2 3.3
2017-Jul-24 08:00N 37°48' W 122°24'0 0.0
2017-Jul-24 07:30N 37°48' W 122°24'0 0.0
2017-Jul-24 07:00N 37°48' W 122°24'0 0.0
2017-Jul-24 06:30N 37°48' W 122°24'0 0.0
2017-Jul-24 06:00N 37°48' W 122°24'0 0.0
2017-Jul-24 05:29N 37°48' W 122°24'0 0.0
2017-Jul-24 05:00N 37°48' W 122°24'0 0.0
2017-Jul-24 04:29N 37°48' W 122°24'0 0.0
2017-Jul-24 04:00N 37°48' W 122°24'0 0.0
2017-Jul-24 03:31N 37°48' W 122°24'0 0.0
2017-Jul-24 03:00N 37°48' W 122°24'0 0.0
2017-Jul-24 02:30N 37°48' W 122°24'0 0.0
2017-Jul-24 02:00N 37°48' W 122°24'0 0.0
2017-Jul-24 01:31N 37°48' W 122°24'0 0.0
2017-Jul-24 01:00N 37°48' W 122°24'3 6.8
2017-Jul-24 00:31N 37°46' W 122°21'1 2.6
2017-Jul-24 00:00N 37°47' W 122°21'4 8.7
2017-Jul-23 23:30N 37°51' W 122°24'510.6
2017-Jul-23 23:00N 37°56' W 122°27'5 9.7
2017-Jul-23 22:30N 38°00' W 122°25'5 9.5
2017-Jul-23 22:00N 38°03' W 122°20'3 6.0
2017-Jul-23 21:27N 38°04' W 122°16'0 0.6
2017-Jul-23 21:00N 38°03' W 122°16'0 0.0
2017-Jul-23 07:00N 38°04' W 122°16'4 7.6
2017-Jul-23 06:30N 38°03' W 122°21'4 9.0
2017-Jul-23 06:00N 37°60' W 122°25'510.8
2017-Jul-23 05:30N 37°54' W 122°27'510.9
2017-Jul-23 05:00N 37°49' W 122°24'4 9.0
2017-Jul-23 04:31N 37°45' W 122°21'2 4.0
2017-Jul-23 04:00N 37°44' W 122°21'2 3.8
2017-Jul-23 03:30N 37°45' W 122°22'3 6.8
2017-Jul-23 03:01N 37°48' W 122°24'0 0.0
2017-Jul-23 02:30N 37°48' W 122°24'0 0.0
2017-Jul-23 02:00N 37°48' W 122°24'0 0.0
2017-Jul-23 01:30N 37°48' W 122°24'3 6.0
2017-Jul-23 01:00N 37°51' W 122°24'4 7.0
2017-Jul-23 00:30N 37°54' W 122°23'1 1.8
2017-Jul-23 00:01N 37°55' W 122°22'0 0.0
2017-Jul-22 23:30N 37°55' W 122°22'0 0.0
2017-Jul-22 23:00N 37°55' W 122°22'0 0.0
2017-Jul-22 22:30N 37°55' W 122°22'0 0.0
2017-Jul-22 22:01N 37°55' W 122°22'0 0.5
2017-Jul-22 21:30N 37°55' W 122°22'0 0.3
2017-Jul-22 21:01N 37°55' W 122°22'2 3.9
2017-Jul-22 20:30N 37°55' W 122°24'2 3.2
2017-Jul-22 20:00N 37°53' W 122°25'4 7.5
2017-Jul-22 19:30N 37°50' W 122°28'2 4.5
2017-Jul-22 18:57N 37°48' W 122°30'1 2.5
2017-Jul-22 18:30N 37°49' W 122°29'3 6.5
2017-Jul-22 17:59N 37°49' W 122°25'1 1.8
2017-Jul-22 17:30N 37°48' W 122°24'0 0.0
2017-Jul-22 17:00N 37°48' W 122°24'0 0.0
2017-Jul-22 16:30N 37°48' W 122°24'0 0.0
2017-Jul-22 16:00N 37°48' W 122°24'0 0.0
2017-Jul-22 15:31N 37°48' W 122°24'0 0.0
2017-Jul-22 15:00N 37°48' W 122°24'0 0.0
2017-Jul-22 14:00N 37°48' W 122°24'3 5.6
2017-Jul-22 13:31N 37°48' W 122°20'1 1.2
2017-Jul-22 13:00N 37°49' W 122°20'0 0.7
2017-Jul-22 12:31N 37°49' W 122°20'2 4.6
2017-Jul-22 12:00N 37°48' W 122°23'1 1.4
2017-Jul-22 11:30N 37°48' W 122°24'0 0.0
2017-Jul-22 11:00N 37°48' W 122°24'0 0.0
2017-Jul-22 10:30N 37°48' W 122°24'0 0.0
2017-Jul-22 10:00N 37°48' W 122°24'0 0.0
2017-Jul-22 09:30N 37°48' W 122°24'0 0.0
2017-Jul-22 09:00N 37°48' W 122°24'0 0.0
2017-Jul-22 08:30N 37°48' W 122°24'0 0.0
2017-Jul-22 08:01N 37°48' W 122°24'0 0.0
2017-Jul-22 07:29N 37°48' W 122°24'0 0.0
2017-Jul-22 07:00N 37°48' W 122°24'0 0.0
2017-Jul-22 06:30N 37°48' W 122°24'0 0.0
2017-Jul-22 06:00N 37°48' W 122°24'0 0.0
2017-Jul-22 05:30N 37°48' W 122°24'0 0.0
2017-Jul-22 05:00N 37°48' W 122°24'0 0.0
2017-Jul-22 04:30N 37°48' W 122°24'0 0.0
2017-Jul-22 04:00N 37°48' W 122°24'0 0.0
2017-Jul-22 03:31N 37°48' W 122°24'0 0.0
2017-Jul-22 03:01N 37°48' W 122°24'4 8.9
2017-Jul-22 02:31N 37°53' W 122°25'3 6.0
2017-Jul-22 02:00N 37°56' W 122°25'0 0.1
2017-Jul-22 01:30N 37°56' W 122°25'0 0.4
2017-Jul-22 01:00N 37°55' W 122°25'0 0.0
2017-Jul-22 00:30N 37°55' W 122°25'0 0.0
2017-Jul-22 00:00N 37°55' W 122°25'0 0.0
2017-Jul-21 23:30N 37°55' W 122°25'2 3.8
2017-Jul-21 23:00N 37°57' W 122°26'610.9
2017-Jul-21 22:28N 38°02' W 122°22'3 1.0
2017-Jul-21 19:25N 38°03' W 122°18'611.8
2017-Jul-21 18:55N 38°00' W 122°25'512.0
2017-Jul-21 18:30N 37°56' W 122°27'510.5
2017-Jul-21 18:01N 37°51' W 122°25'5 9.8
2017-Jul-21 17:30N 37°48' W 122°30'1 2.1
2017-Jul-21 17:00N 37°49' W 122°30'3 5.9
2017-Jul-21 16:30N 37°49' W 122°26'2 3.7
2017-Jul-21 16:00N 37°48' W 122°24'0 0.0
2017-Jul-21 15:30N 37°48' W 122°24'0 0.0
2017-Jul-21 15:00N 37°48' W 122°24'0 0.0
2017-Jul-21 14:30N 37°48' W 122°24'0 0.0
2017-Jul-21 14:01N 37°48' W 122°24'0 0.0
2017-Jul-21 13:30N 37°48' W 122°24'0 0.0
2017-Jul-21 13:00N 37°48' W 122°24'0 0.0
2017-Jul-21 12:30N 37°48' W 122°24'0 0.0
2017-Jul-21 12:00N 37°48' W 122°24'0 0.0
2017-Jul-21 11:30N 37°48' W 122°24'0 0.0
2017-Jul-21 11:00N 37°48' W 122°24'0 0.0
2017-Jul-21 10:30N 37°48' W 122°24'0 0.0
2017-Jul-21 10:00N 37°48' W 122°24'0 0.0
2017-Jul-21 09:30N 37°48' W 122°24'0 0.0
2017-Jul-21 09:00N 37°48' W 122°24'0 0.0
2017-Jul-21 08:30N 37°48' W 122°24'0 0.0
2017-Jul-21 08:00N 37°48' W 122°24'0 0.0
2017-Jul-21 07:28N 37°48' W 122°24'0 0.0
2017-Jul-21 07:01N 37°48' W 122°24'0 0.0
2017-Jul-21 06:30N 37°48' W 122°24'0 0.0
2017-Jul-21 06:00N 37°48' W 122°24'0 0.0
2017-Jul-21 05:30N 37°48' W 122°24'0 0.0
2017-Jul-21 05:00N 37°48' W 122°24'0 0.0
2017-Jul-21 04:30N 37°48' W 122°24'0 0.0
2017-Jul-21 04:00N 37°48' W 122°24'0 0.0
2017-Jul-21 03:31N 37°48' W 122°24'0 0.0
2017-Jul-21 03:00N 37°48' W 122°24'0 0.0
2017-Jul-21 02:31N 37°48' W 122°24'0 0.0
2017-Jul-21 02:00N 37°48' W 122°24'0 0.0
2017-Jul-21 01:29N 37°48' W 122°24'0 0.0
2017-Jul-21 01:01N 37°48' W 122°24'0 0.0
2017-Jul-21 00:30N 37°48' W 122°24'0 0.0
2017-Jul-21 00:00N 37°48' W 122°24'0 0.0
2017-Jul-20 23:30N 37°48' W 122°24'0 0.0
2017-Jul-20 23:00N 37°48' W 122°24'0 0.0
2017-Jul-20 22:30N 37°48' W 122°24'0 0.0
2017-Jul-20 22:00N 37°48' W 122°24'0 0.0
2017-Jul-20 21:30N 37°48' W 122°24'0 0.0
2017-Jul-20 21:00N 37°48' W 122°24'0 0.0
2017-Jul-20 20:30N 37°48' W 122°24'2 3.6
2017-Jul-20 20:00N 37°49' W 122°26'4 8.2
2017-Jul-20 19:30N 37°49' W 122°31'1 2.8
2017-Jul-20 19:00N 37°49' W 122°29'5 9.2
2017-Jul-20 18:30N 37°52' W 122°25'5 9.7
2017-Jul-20 18:00N 37°56' W 122°27'5 9.1
2017-Jul-20 17:27N 38°01' W 122°24'4 9.7
2017-Jul-20 17:00N 38°03' W 122°19'5 9.1
2017-Jul-20 16:30N 38°04' W 122°14'3 0.3
2017-Jul-20 07:20N 38°03' W 122°10'310.5
2017-Jul-20 07:00N 38°04' W 122°14'1 0.5
2017-Jul-20 05:16N 38°05' W 122°15'1 4.4
2017-Jul-20 04:59N 38°03' W 122°15'0 0.0
2017-Jul-20 04:30N 38°03' W 122°15'0 0.0
2017-Jul-20 04:00N 38°03' W 122°15'0 0.0
2017-Jul-20 03:30N 38°03' W 122°15'0 0.0
2017-Jul-20 03:00N 38°03' W 122°15'0 0.0
2017-Jul-20 02:30N 38°03' W 122°15'1 0.9
2017-Jul-20 01:27N 38°03' W 122°16'1 2.3
2017-Jul-20 00:59N 38°03' W 122°17'5 9.8
2017-Jul-20 00:30N 38°03' W 122°11'1 0.0
2017-Jul-19 03:35N 38°03' W 122°11'110.3
2017-Jul-19 03:30N 38°03' W 122°12'5 9.8
2017-Jul-19 03:00N 38°03' W 122°18'4 8.0
2017-Jul-19 02:30N 38°02' W 122°22'5 9.2
2017-Jul-19 02:00N 37°58' W 122°26'5 9.5
2017-Jul-19 01:30N 37°54' W 122°26'5 9.9
2017-Jul-19 01:00N 37°49' W 122°24'5 9.1
2017-Jul-19 00:30N 37°45' W 122°21'1 2.1
2017-Jul-19 00:00N 37°44' W 122°20'4 7.6
2017-Jul-18 23:30N 37°48' W 122°20'1 2.5
2017-Jul-18 23:00N 37°48' W 122°19'1 2.4
2017-Jul-18 22:30N 37°48' W 122°20'4 7.6
2017-Jul-18 22:00N 37°51' W 122°23'4 7.5
2017-Jul-18 21:30N 37°54' W 122°25'5 8.0
2017-Jul-18 20:52N 37°60' W 122°25'3 8.8
2017-Jul-18 20:30N 38°02' W 122°22'7 8.6
2017-Jul-18 19:41N 38°04' W 122°14'0 1.4
2017-Jul-18 19:29N 38°04' W 122°13'1 0.3
2017-Jul-18 16:13N 38°04' W 122°15'5 5.9
2017-Jul-18 15:23N 38°02' W 122°09'1 0.1
2017-Jul-18 07:01N 38°03' W 122°08'0 0.0
2017-Jul-18 06:56N 38°03' W 122°08'0 0.0
2017-Jul-18 06:29N 38°03' W 122°08'0 0.0
2017-Jul-18 05:58N 38°03' W 122°08'0 0.0
2017-Jul-18 04:18N 38°03' W 122°08'0 0.0
2017-Jul-18 03:53N 38°03' W 122°08'0 0.0
2017-Jul-18 03:30N 38°03' W 122°08'0 0.1
2017-Jul-18 01:48N 38°02' W 122°08'2 5.0
2017-Jul-18 01:19N 38°03' W 122°11'311.2
2017-Jul-18 01:00N 38°04' W 122°15'8 9.4
2017-Jul-18 00:11N 38°00' W 122°24'310.7
2017-Jul-17 23:54N 37°58' W 122°26'512.0
2017-Jul-17 23:30N 37°53' W 122°25'510.0
2017-Jul-17 23:00N 37°48' W 122°24'0 0.0
2017-Jul-17 22:30N 37°48' W 122°24'0 0.0
2017-Jul-17 22:00N 37°48' W 122°24'0 0.0
2017-Jul-17 21:30N 37°48' W 122°24'0 0.0
2017-Jul-17 21:00N 37°48' W 122°24'0 0.0
2017-Jul-17 20:30N 37°48' W 122°24'0 0.0
2017-Jul-17 20:00N 37°48' W 122°24'0 0.1
2017-Jul-17 19:30N 37°48' W 122°24'0 0.0
2017-Jul-17 19:00N 37°48' W 122°24'0 0.1
2017-Jul-17 18:30N 37°48' W 122°24'0 0.0
2017-Jul-17 18:00N 37°48' W 122°24'0 0.0
2017-Jul-17 17:30N 37°48' W 122°24'0 0.0
2017-Jul-17 17:00N 37°48' W 122°24'0 0.0
2017-Jul-17 16:30N 37°48' W 122°24'0 0.0
2017-Jul-17 16:00N 37°48' W 122°24'0 0.0
2017-Jul-17 15:30N 37°48' W 122°24'0 0.1
2017-Jul-17 15:00N 37°48' W 122°24'2 5.0
2017-Jul-17 14:30N 37°46' W 122°23'0 0.0
2017-Jul-17 14:00N 37°46' W 122°23'0 0.0
2017-Jul-17 13:30N 37°46' W 122°23'0 0.1
2017-Jul-17 13:00N 37°46' W 122°23'0 0.3
2017-Jul-17 12:30N 37°46' W 122°23'0 1.0
2017-Jul-17 12:00N 37°46' W 122°22'1 2.3
2017-Jul-17 11:30N 37°46' W 122°21'0 0.2
2017-Jul-17 11:00N 37°46' W 122°21'3 6.1
2017-Jul-17 10:30N 37°48' W 122°24'0 0.0
2017-Jul-17 10:00N 37°48' W 122°24'1 3.0
2017-Jul-17 09:30N 37°50' W 122°24'611.8
2017-Jul-17 09:00N 37°55' W 122°25'611.3
2017-Jul-17 08:30N 38°01' W 122°24'612.2
2017-Jul-17 08:00N 38°03' W 122°17'611.9
2017-Jul-17 07:29N 38°02' W 122°09'1 1.5
2017-Jul-17 07:00N 38°02' W 122°08'0 0.0
2017-Jul-17 06:29N 38°02' W 122°08'1 0.9
2017-Jul-17 05:54N 38°02' W 122°09'1 2.4
2017-Jul-17 05:30N 38°02' W 122°07'1 1.2
2017-Jul-17 05:00N 38°03' W 122°08'0 0.0
2017-Jul-17 04:29N 38°03' W 122°08'1 2.3
2017-Jul-17 03:59N 38°02' W 122°09'510.0
2017-Jul-17 03:30N 38°04' W 122°15'610.4
2017-Jul-17 02:58N 38°02' W 122°22'510.0
2017-Jul-17 02:30N 37°59' W 122°26'510.3
2017-Jul-17 02:00N 37°53' W 122°25'5 9.9
2017-Jul-17 01:30N 37°49' W 122°21'1 2.4
2017-Jul-17 01:00N 37°48' W 122°20'1 1.8
2017-Jul-17 00:30N 37°49' W 122°19'1 1.9
2017-Jul-17 00:01N 37°48' W 122°21'2 3.4
2017-Jul-16 23:30N 37°48' W 122°23'2 3.4
2017-Jul-16 23:00N 37°50' W 122°23'4 8.8
2017-Jul-16 22:30N 37°54' W 122°25'5 9.0
2017-Jul-16 21:59N 37°59' W 122°26'5 9.9
2017-Jul-16 21:30N 38°02' W 122°22'611.7
2017-Jul-16 21:00N 38°04' W 122°14'  

Dump ship's entire track history